Time;durP1;ratioP1;P1;durP2;ratioP2;P2;SDS_P1;SDS_P2;PMS_P1;PMS_P2;Temp;Humidity;BMP_temperature;BMP_pressure;BME280_temperature;BME280_humidity;BME280_pressure;Samples;Min_cycle;Max_cycle;Signal;HPM_P1;HPM_P2
2022/03/20 00:01:07;;;;;;;23.20;10.90;;;4.10;99.90;;;;;;5017676;28;20249;-84
2022/03/20 00:03:33;;;;;;;17.53;10.47;;;4.10;99.90;;;;;;5017569;28;20629;-84
2022/03/20 00:05:59;;;;;;;20.53;10.80;;;4.10;99.90;;;;;;5016657;28;20517;-85
2022/03/20 00:08:26;;;;;;;18.10;10.90;;;4.10;99.90;;;;;;5016497;28;20258;-85
2022/03/20 00:10:54;;;;;;;17.87;10.50;;;4.10;99.90;;;;;;5017423;28;20252;-84
2022/03/20 00:13:22;;;;;;;19.83;11.20;;;4.00;99.90;;;;;;5017613;28;20172;-84
2022/03/20 00:15:50;;;;;;;21.97;11.70;;;3.90;99.90;;;;;;5017698;28;20621;-84
2022/03/20 00:18:20;;;;;;;18.43;10.83;;;4.00;99.90;;;;;;5017315;28;20193;-84
2022/03/20 00:20:52;;;;;;;18.30;11.23;;;3.90;99.90;;;;;;5017847;28;20642;-84
2022/03/20 00:23:18;;;;;;;20.27;10.97;;;3.80;99.90;;;;;;5017582;28;20597;-84
2022/03/20 00:25:46;;;;;;;22.53;11.43;;;3.80;99.90;;;;;;5017183;28;20630;-84
2022/03/20 00:28:14;;;;;;;19.07;10.73;;;3.80;99.90;;;;;;5017286;28;20199;-84
2022/03/20 00:30:41;;;;;;;21.47;11.07;;;3.80;99.90;;;;;;5017415;28;20615;-85
2022/03/20 00:33:07;;;;;;;20.73;11.13;;;3.70;99.90;;;;;;5015866;28;20178;-84
2022/03/20 00:35:33;;;;;;;17.30;10.90;;;3.70;99.90;;;;;;5017293;28;20210;-84
2022/03/20 00:37:59;;;;;;;19.87;11.13;;;3.70;99.90;;;;;;5016922;28;20179;-84
2022/03/20 00:40:25;;;;;;;18.03;11.87;;;3.60;99.90;;;;;;5017035;28;20225;-86
2022/03/20 00:42:52;;;;;;;17.63;11.03;;;3.60;99.90;;;;;;5017325;28;20656;-85
2022/03/20 00:45:17;;;;;;;22.47;11.47;;;3.60;99.90;;;;;;5015977;28;20202;-84
2022/03/20 00:47:43;;;;;;;19.13;11.07;;;3.60;99.90;;;;;;5016990;28;20184;-84
2022/03/20 00:50:09;;;;;;;21.37;12.17;;;3.50;99.90;;;;;;5017483;28;20205;-85
2022/03/20 00:52:36;;;;;;;19.33;11.17;;;3.60;99.90;;;;;;5016344;28;20486;-85
2022/03/20 00:55:02;;;;;;;18.47;10.83;;;3.50;99.90;;;;;;5016734;28;20187;-85
2022/03/20 00:57:28;;;;;;;18.80;11.47;;;3.50;99.90;;;;;;5016960;28;20170;-84
2022/03/20 00:59:54;;;;;;;19.50;12.00;;;3.50;99.90;;;;;;5016625;28;20193;-85
2022/03/20 01:02:20;;;;;;;20.90;12.43;;;3.40;99.90;;;;;;5016798;28;20175;-84
2022/03/20 01:04:46;;;;;;;22.17;12.30;;;3.40;99.90;;;;;;5016507;28;20244;-85
2022/03/20 01:07:12;;;;;;;20.60;11.70;;;3.40;99.90;;;;;;5016567;28;20174;-84
2022/03/20 01:09:38;;;;;;;19.13;11.73;;;3.40;99.90;;;;;;5016365;28;20298;-83
2022/03/20 01:12:06;;;;;;;17.57;11.47;;;3.40;99.90;;;;;;5016409;28;20172;-83
2022/03/20 01:14:33;;;;;;;20.40;11.97;;;3.40;99.90;;;;;;5016473;28;20482;-84
2022/03/20 01:16:58;;;;;;;21.10;12.50;;;3.40;99.90;;;;;;5016729;28;20213;-84
2022/03/20 01:19:25;;;;;;;18.57;12.03;;;3.30;99.90;;;;;;5016022;28;20175;-84
2022/03/20 01:21:52;;;;;;;21.27;12.20;;;3.30;99.90;;;;;;5448491;22;20280;-81
2022/03/20 01:24:19;;;;;;;20.57;11.87;;;3.30;99.90;;;;;;4995998;28;20191;-82
2022/03/20 01:26:45;;;;;;;19.17;12.70;;;3.30;99.90;;;;;;5012171;28;20503;-82
2022/03/20 01:29:10;;;;;;;19.17;11.97;;;3.30;99.90;;;;;;5011879;28;20191;-82
2022/03/20 01:31:37;;;;;;;16.63;11.57;;;3.30;99.90;;;;;;5011923;28;20187;-81
2022/03/20 01:34:04;;;;;;;19.77;11.90;;;3.30;99.90;;;;;;5011641;28;20240;-84
2022/03/20 01:36:30;;;;;;;19.47;11.80;;;3.20;99.90;;;;;;5011905;28;20207;-83
2022/03/20 01:38:56;;;;;;;19.37;11.77;;;3.20;99.90;;;;;;5010642;28;20196;-82
2022/03/20 01:41:23;;;;;;;22.37;12.77;;;3.20;99.90;;;;;;4996392;28;20250;-81
2022/03/20 01:43:54;;;;;;;19.93;11.90;;;3.10;99.90;;;;;;5011334;28;20621;-82
2022/03/20 01:46:20;;;;;;;23.07;12.10;;;3.10;99.90;;;;;;4996685;28;20182;-83
2022/03/20 01:48:46;;;;;;;25.70;13.37;;;3.10;99.90;;;;;;5011228;28;20273;-83
2022/03/20 01:51:13;;;;;;;21.87;12.57;;;3.10;99.90;;;;;;5011449;28;20529;-85
2022/03/20 01:53:39;;;;;;;18.30;12.03;;;3.10;99.90;;;;;;5011865;28;20191;-84
2022/03/20 01:56:05;;;;;;;20.27;12.63;;;3.00;99.90;;;;;;5011997;28;20566;-84
2022/03/20 01:58:32;;;;;;;23.47;12.43;;;3.00;99.90;;;;;;4996461;28;20610;-83
2022/03/20 02:00:58;;;;;;;25.87;13.63;;;3.00;99.90;;;;;;5011557;28;20222;-83
2022/03/20 02:03:24;;;;;;;20.47;12.97;;;3.00;99.90;;;;;;5011317;28;20222;-83
2022/03/20 02:05:51;;;;;;;18.10;12.23;;;3.00;99.90;;;;;;5011658;28;20187;-83
2022/03/20 02:08:16;;;;;;;20.87;13.00;;;2.90;99.90;;;;;;4996492;28;20218;-84
2022/03/20 02:10:43;;;;;;;19.77;12.80;;;2.90;99.90;;;;;;5011612;28;20184;-83
2022/03/20 02:13:09;;;;;;;21.53;12.77;;;2.90;99.90;;;;;;4996305;28;20222;-83
2022/03/20 02:15:38;;;;;;;20.27;12.27;;;2.90;99.90;;;;;;4996373;28;20168;-84
2022/03/20 02:18:07;;;;;;;19.03;12.63;;;2.90;99.90;;;;;;5010783;28;20179;-83
2022/03/20 02:20:33;;;;;;;20.90;12.90;;;2.80;99.90;;;;;;5011079;28;20229;-84
2022/03/20 02:22:59;;;;;;;20.73;12.97;;;2.80;99.90;;;;;;4996010;28;20227;-84
2022/03/20 02:25:24;;;;;;;23.17;13.00;;;2.80;99.90;;;;;;5010406;28;20191;-83
2022/03/20 02:27:50;;;;;;;22.57;12.57;;;2.80;99.90;;;;;;5011235;28;20195;-84
2022/03/20 02:30:18;;;;;;;20.07;13.40;;;2.80;99.90;;;;;;5011022;28;20181;-84
2022/03/20 02:32:53;;;;;;;22.27;12.90;;;2.70;99.90;;;;;;4995578;28;20258;-83
2022/03/20 02:35:19;;;;;;;22.33;13.60;;;2.70;99.90;;;;;;4996139;28;20188;-84
2022/03/20 02:37:48;;;;;;;21.80;13.07;;;2.70;99.90;;;;;;4995507;28;20265;-83
2022/03/20 02:40:16;;;;;;;19.90;13.00;;;2.70;99.90;;;;;;4995699;28;20215;-84
2022/03/20 02:42:45;;;;;;;24.80;13.57;;;2.60;99.90;;;;;;5010967;28;20459;-83
2022/03/20 02:45:14;;;;;;;21.93;12.97;;;2.70;99.90;;;;;;4994545;28;20184;-84
2022/03/20 02:47:42;;;;;;;20.70;13.40;;;2.60;99.90;;;;;;5010835;28;20524;-84
2022/03/20 02:50:09;;;;;;;21.57;13.40;;;2.60;99.90;;;;;;5010848;28;20230;-83
2022/03/20 02:52:51;;;;;;;26.53;12.77;;;2.60;99.90;;;;;;5010642;28;20632;-83
2022/03/20 02:55:24;;;;;;;22.23;13.50;;;2.50;99.90;;;;;;5010690;28;20195;-84
2022/03/20 02:57:51;;;;;;;18.63;12.63;;;2.50;99.90;;;;;;5010581;28;20186;-84
2022/03/20 03:00:21;;;;;;;22.47;13.33;;;2.50;99.90;;;;;;4995434;28;20211;-84
2022/03/20 03:02:48;;;;;;;20.63;13.07;;;2.50;99.90;;;;;;5010433;28;20211;-84
2022/03/20 03:05:16;;;;;;;21.43;13.27;;;2.50;99.90;;;;;;4995596;28;20176;-83
2022/03/20 03:13:15;;;;;;;18.77;12.17;;;2.40;99.90;;;;;;4994732;28;20175;-84
2022/03/20 03:15:41;;;;;;;20.47;12.27;;;2.30;99.90;;;;;;5010820;28;20630;-84
2022/03/20 03:18:08;;;;;;;21.07;13.13;;;2.30;99.90;;;;;;5010360;28;20176;-84
2022/03/20 03:20:34;;;;;;;21.90;14.47;;;2.30;99.90;;;;;;5010294;28;20235;-83
2022/03/20 03:23:00;;;;;;;22.10;13.47;;;2.30;99.90;;;;;;5010335;28;20244;-83
2022/03/20 03:25:26;;;;;;;24.53;12.93;;;2.30;99.90;;;;;;4995543;28;20184;-84
2022/03/20 03:27:53;;;;;;;21.97;13.23;;;2.30;99.90;;;;;;4995060;28;20665;-83
2022/03/20 03:30:19;;;;;;;23.67;13.77;;;2.30;99.90;;;;;;4995448;28;20180;-85
2022/03/20 03:32:45;;;;;;;21.07;13.77;;;2.20;99.90;;;;;;5010380;28;20184;-82
2022/03/20 03:37:57;;;;;;;18.57;12.57;;;2.20;99.90;;;;;;4995068;28;20617;-82
2022/03/20 03:40:24;;;;;;;19.17;12.80;;;2.20;99.90;;;;;;4994882;28;20212;-83
2022/03/20 03:42:49;;;;;;;21.80;13.03;;;2.10;99.90;;;;;;5010147;28;20231;-83
2022/03/20 03:45:15;;;;;;;23.67;13.87;;;2.20;99.90;;;;;;5010350;28;20604;-84
2022/03/20 03:47:41;;;;;;;23.10;13.57;;;2.20;99.90;;;;;;4994881;28;20599;-82
2022/03/20 03:50:08;;;;;;;23.67;12.67;;;2.20;99.90;;;;;;5010164;28;20191;-85
2022/03/20 03:52:34;;;;;;;22.33;14.30;;;2.10;99.90;;;;;;4995175;28;20611;-82
2022/03/20 03:54:59;;;;;;;20.87;12.70;;;2.10;99.90;;;;;;5010012;28;20184;-82
2022/03/20 03:57:26;;;;;;;21.07;13.53;;;2.10;99.90;;;;;;5010124;28;20184;-81
2022/03/20 03:59:52;;;;;;;21.53;13.73;;;2.10;99.90;;;;;;5009809;28;20255;-82
2022/03/20 04:02:18;;;;;;;19.97;12.97;;;2.10;99.90;;;;;;5009777;28;20192;-83
2022/03/20 04:04:45;;;;;;;19.93;13.43;;;2.10;99.90;;;;;;4994488;28;20176;-82
2022/03/20 04:07:12;;;;;;;21.50;13.10;;;2.00;99.90;;;;;;4994484;28;20194;-82
2022/03/20 04:09:38;;;;;;;23.37;13.17;;;2.00;99.90;;;;;;4994700;28;20186;-83
2022/03/20 04:12:05;;;;;;;23.50;13.43;;;2.10;99.90;;;;;;5009961;28;20253;-84
2022/03/20 04:14:32;;;;;;;20.53;13.10;;;2.00;99.90;;;;;;5013310;28;20246;-84
2022/03/20 04:16:58;;;;;;;20.67;13.30;;;2.00;99.90;;;;;;4998205;28;20169;-84
2022/03/20 04:19:24;;;;;;;24.13;14.00;;;2.00;99.90;;;;;;5012996;28;20247;-82
2022/03/20 04:21:49;;;;;;;23.50;13.63;;;1.90;99.90;;;;;;4997874;28;20564;-81
2022/03/20 04:24:15;;;;;;;22.93;13.73;;;1.90;99.90;;;;;;4998204;28;20176;-82
2022/03/20 04:26:41;;;;;;;22.17;13.23;;;1.90;99.90;;;;;;5013177;28;20187;-81
2022/03/20 04:29:06;;;;;;;23.23;12.93;;;1.90;99.90;;;;;;5012965;28;20195;-82
2022/03/20 04:31:32;;;;;;;19.77;13.07;;;1.90;99.90;;;;;;5012903;28;20180;-82
2022/03/20 04:33:58;;;;;;;22.53;13.10;;;1.90;99.90;;;;;;5012881;28;20317;-81
2022/03/20 04:36:27;;;;;;;24.93;13.90;;;1.80;99.90;;;;;;4997993;28;20191;-81
2022/03/20 04:38:55;;;;;;;22.27;14.00;;;1.80;99.90;;;;;;5012567;28;20183;-82
2022/03/20 04:41:22;;;;;;;25.00;13.67;;;1.80;99.90;;;;;;5012667;28;20302;-82
2022/03/20 04:43:49;;;;;;;21.40;13.27;;;1.80;99.90;;;;;;5012474;28;20189;-80
2022/03/20 04:46:16;;;;;;;27.73;13.00;;;1.80;99.90;;;;;;5012757;28;20558;-82
2022/03/20 04:59:38;;;;;;;20.60;13.30;;;1.70;99.90;;;;;;4997626;28;20175;-81
2022/03/20 05:02:04;;;;;;;24.03;13.47;;;1.70;99.90;;;;;;4997048;28;20560;-82
2022/03/20 05:04:31;;;;;;;20.57;12.67;;;1.70;99.90;;;;;;5012084;28;20540;-81
2022/03/20 05:06:57;;;;;;;19.93;13.13;;;1.60;99.90;;;;;;4997093;28;20214;-82
2022/03/20 05:14:52;;;;;;;20.80;13.53;;;1.60;99.90;;;;;;4997436;28;20179;-82
2022/03/20 05:17:17;;;;;;;24.57;13.73;;;1.60;99.90;;;;;;4996885;28;20165;-81
2022/03/20 05:19:43;;;;;;;24.73;13.13;;;1.60;99.90;;;;;;5011782;28;20183;-81
2022/03/20 05:22:10;;;;;;;22.83;13.93;;;1.50;99.90;;;;;;5011669;28;20235;-81
2022/03/20 05:24:37;;;;;;;22.83;13.60;;;1.60;99.90;;;;;;5011176;28;20519;-81
2022/03/20 05:27:04;;;;;;;25.73;13.80;;;1.60;99.90;;;;;;5011902;28;20176;-82
2022/03/20 05:29:31;;;;;;;20.37;13.37;;;1.60;99.90;;;;;;5011777;28;20180;-81
2022/03/20 05:31:57;;;;;;;22.90;13.67;;;1.50;99.90;;;;;;5011515;28;20187;-82
2022/03/20 05:34:23;;;;;;;20.47;12.60;;;1.60;99.90;;;;;;4996519;28;20503;-81
2022/03/20 05:36:51;;;;;;;23.90;14.17;;;1.50;99.90;;;;;;4996808;28;20187;-81
2022/03/20 05:39:17;;;;;;;22.53;14.00;;;1.50;99.90;;;;;;4996870;28;20167;-82
2022/03/20 05:41:49;;;;;;;24.30;12.87;;;1.60;99.90;;;;;;5011834;28;20214;-83
2022/03/20 05:44:17;;;;;;;26.23;13.93;;;1.50;99.90;;;;;;5011879;28;20178;-83
2022/03/20 05:46:48;;;;;;;22.73;13.30;;;1.50;99.90;;;;;;4996804;28;20176;-82
2022/03/20 05:49:15;;;;;;;22.43;13.90;;;1.50;99.90;;;;;;4996420;28;20165;-82
2022/03/20 05:51:41;;;;;;;21.47;13.57;;;1.60;99.90;;;;;;5011666;28;20279;-82
2022/03/20 05:54:07;;;;;;;21.77;13.43;;;1.60;99.90;;;;;;5011701;28;20183;-83
2022/03/20 05:59:18;;;;;;;23.90;13.97;;;1.70;99.90;;;;;;4996784;28;20210;-82
2022/03/20 06:01:44;;;;;;;28.57;14.27;;;1.70;99.90;;;;;;5011169;28;20217;-83
2022/03/20 06:04:10;;;;;;;19.13;13.20;;;1.70;99.90;;;;;;5010377;28;20573;-81
2022/03/20 06:06:37;;;;;;;23.43;12.57;;;1.70;99.90;;;;;;5011720;28;20191;-82
2022/03/20 06:09:03;;;;;;;24.73;13.83;;;1.70;99.90;;;;;;5011297;28;20169;-83
2022/03/20 06:11:29;;;;;;;21.63;13.23;;;1.80;99.90;;;;;;5011411;28;20184;-83
2022/03/20 06:13:55;;;;;;;21.50;12.93;;;1.80;99.90;;;;;;5011355;28;20203;-81
2022/03/20 06:16:23;;;;;;;21.83;12.97;;;1.90;99.90;;;;;;5011359;28;20270;-83
2022/03/20 06:18:49;;;;;;;21.70;13.50;;;1.80;99.90;;;;;;4996098;28;20160;-83
2022/03/20 06:21:16;;;;;;;22.37;13.87;;;1.90;99.90;;;;;;5011358;28;20323;-84
2022/03/20 06:23:41;;;;;;;22.13;13.70;;;1.90;99.90;;;;;;5010039;28;20271;-83
2022/03/20 06:26:08;;;;;;;23.30;13.23;;;2.00;99.90;;;;;;4996154;28;20678;-82
2022/03/20 06:28:35;;;;;;;25.20;13.57;;;2.00;99.90;;;;;;5011188;28;20639;-83
2022/03/20 06:31:01;;;;;;;22.20;13.37;;;2.10;99.90;;;;;;5011335;28;20185;-82
2022/03/20 06:33:27;;;;;;;22.13;13.40;;;2.10;99.90;;;;;;5011125;28;20251;-83
2022/03/20 06:35:53;;;;;;;25.40;13.00;;;2.20;99.90;;;;;;5011265;28;20249;-83
2022/03/20 06:38:22;;;;;;;24.73;13.53;;;2.30;99.90;;;;;;5011044;28;20251;-82
2022/03/20 06:40:48;;;;;;;27.50;13.90;;;2.30;99.90;;;;;;4995773;28;20210;-83
2022/03/20 06:43:14;;;;;;;29.53;13.60;;;2.30;99.90;;;;;;5010854;28;20185;-83
2022/03/20 06:45:41;;;;;;;24.87;13.70;;;2.40;99.90;;;;;;4995733;28;20172;-81
2022/03/20 06:48:07;;;;;;;22.13;12.37;;;2.40;99.90;;;;;;5010434;28;20271;-81
2022/03/20 06:50:33;;;;;;;23.23;13.43;;;2.50;99.90;;;;;;5010506;28;20184;-81
2022/03/20 06:53:04;;;;;;;27.20;13.70;;;2.60;99.90;;;;;;5010417;28;20183;-82
2022/03/20 06:55:30;;;;;;;23.40;14.20;;;2.60;99.90;;;;;;5010731;28;20188;-82
2022/03/20 06:58:00;;;;;;;26.07;13.20;;;2.70;99.90;;;;;;4995455;28;20173;-83
2022/03/20 07:00:28;;;;;;;24.20;13.60;;;2.80;99.90;;;;;;4995559;28;20690;-83
2022/03/20 07:02:54;;;;;;;21.73;13.07;;;2.90;99.90;;;;;;4995130;28;20565;-84
2022/03/20 07:05:21;;;;;;;28.03;13.00;;;3.00;99.90;;;;;;5010280;28;20183;-83
2022/03/20 07:07:46;;;;;;;23.00;13.60;;;3.00;99.30;;;;;;5010415;28;20190;-83
2022/03/20 07:10:17;;;;;;;21.87;12.93;;;3.10;99.70;;;;;;5010514;28;20187;-83
2022/03/20 07:12:42;;;;;;;24.77;13.70;;;3.10;98.90;;;;;;5010429;28;20183;-83
2022/03/20 07:15:08;;;;;;;25.30;12.87;;;3.20;99.50;;;;;;5010653;28;20180;-83
2022/03/20 07:17:37;;;;;;;21.53;13.00;;;3.30;99.60;;;;;;4989561;28;20464;-83
2022/03/20 07:20:13;;;;;;;21.43;13.17;;;3.40;99.60;;;;;;5003952;28;20203;-83
2022/03/20 07:22:40;;;;;;;25.63;14.00;;;3.50;99.50;;;;;;5007668;28;20294;-82
2022/03/20 07:30:34;;;;;;;23.47;13.77;;;3.70;99.40;;;;;;4994386;28;20174;-83
2022/03/20 07:33:00;;;;;;;20.80;13.10;;;3.80;98.60;;;;;;5010128;28;20180;-82
2022/03/20 07:35:27;;;;;;;23.90;13.37;;;3.90;98.10;;;;;;4993998;28;20267;-83
2022/03/20 07:37:52;;;;;;;24.73;13.87;;;3.90;97.10;;;;;;5010149;28;20298;-83
2022/03/20 07:40:18;;;;;;;26.13;13.77;;;4.00;98.10;;;;;;4998153;28;20179;-82
2022/03/20 07:42:44;;;;;;;22.90;13.50;;;4.10;96.90;;;;;;5014698;28;20178;-83
2022/03/20 07:45:10;;;;;;;24.80;14.40;;;4.10;96.70;;;;;;5014858;28;20172;-83
2022/03/20 07:47:36;;;;;;;19.97;12.70;;;4.20;97.00;;;;;;5015390;28;20594;-83
2022/03/20 07:50:03;;;;;;;24.20;13.60;;;4.30;96.60;;;;;;5017492;28;20207;-82
2022/03/20 07:52:29;;;;;;;22.13;13.13;;;4.40;97.00;;;;;;5017229;28;20175;-81
2022/03/20 07:54:54;;;;;;;21.73;13.17;;;4.40;96.20;;;;;;5033780;28;20283;-82
2022/03/20 07:57:20;;;;;;;26.70;14.10;;;4.50;96.40;;;;;;5033429;28;20194;-84
2022/03/20 07:59:47;;;;;;;24.23;13.63;;;4.60;96.10;;;;;;5021223;28;20191;-84
2022/03/20 08:02:12;;;;;;;24.00;13.87;;;4.70;96.70;;;;;;5013067;28;20584;-84
2022/03/20 08:04:39;;;;;;;32.83;14.53;;;4.80;95.60;;;;;;5016400;28;20172;-82
2022/03/20 08:07:05;;;;;;;22.70;13.23;;;4.90;95.90;;;;;;5033265;28;20220;-82
2022/03/20 08:09:31;;;;;;;24.30;14.00;;;5.00;95.30;;;;;;5016419;28;20210;-82
2022/03/20 08:11:57;;;;;;;24.93;14.00;;;5.10;95.50;;;;;;5010621;28;20275;-83
2022/03/20 08:14:23;;;;;;;29.13;14.47;;;5.10;95.30;;;;;;5007454;28;20666;-82
2022/03/20 08:16:50;;;;;;;22.13;13.40;;;5.20;95.60;;;;;;5023624;28;20191;-83
2022/03/20 08:19:16;;;;;;;23.03;14.00;;;5.40;95.80;;;;;;5006419;28;20171;-83
2022/03/20 08:21:43;;;;;;;25.80;13.60;;;5.50;94.70;;;;;;5021215;28;20251;-82
2022/03/20 08:24:09;;;;;;;22.70;13.93;;;5.70;95.10;;;;;;5007402;28;20168;-82
2022/03/20 08:26:35;;;;;;;27.07;14.20;;;5.80;95.00;;;;;;5012988;28;20184;-82
2022/03/20 08:29:01;;;;;;;22.53;13.57;;;5.90;94.20;;;;;;5026106;28;20575;-82
2022/03/20 08:31:33;;;;;;;22.50;13.10;;;6.00;93.90;;;;;;5013007;28;20501;-82
2022/03/20 08:34:00;;;;;;;21.87;13.53;;;6.10;93.10;;;;;;5012833;28;20164;-82
2022/03/20 08:36:26;;;;;;;22.77;13.63;;;6.20;93.90;;;;;;5012854;28;20180;-82
2022/03/20 08:38:52;;;;;;;22.97;13.50;;;6.40;93.20;;;;;;5012859;28;20179;-82
2022/03/20 08:41:18;;;;;;;21.73;13.80;;;6.50;92.70;;;;;;5012536;28;20216;-82
2022/03/20 08:43:44;;;;;;;24.83;14.20;;;6.50;93.00;;;;;;4997030;28;20195;-84
2022/03/20 08:46:10;;;;;;;21.90;13.47;;;6.60;92.70;;;;;;4997607;28;20176;-82
2022/03/20 08:48:36;;;;;;;21.67;13.43;;;6.70;92.10;;;;;;5012493;28;20206;-82
2022/03/20 08:51:02;;;;;;;22.33;14.10;;;6.80;91.80;;;;;;4997626;28;20203;-83
2022/03/20 08:53:29;;;;;;;24.47;13.77;;;6.90;91.70;;;;;;5012759;28;20624;-84
2022/03/20 08:55:54;;;;;;;22.57;14.13;;;7.10;91.60;;;;;;5012617;28;20211;-82
2022/03/20 08:58:20;;;;;;;22.23;14.10;;;7.20;90.90;;;;;;5006011;28;20567;-82
2022/03/20 09:00:46;;;;;;;19.73;13.30;;;7.30;90.70;;;;;;5005441;28;20673;-82
2022/03/20 09:03:13;;;;;;;21.53;13.17;;;7.40;90.30;;;;;;5021457;28;20226;-83
2022/03/20 09:05:39;;;;;;;24.60;13.53;;;7.50;90.00;;;;;;4997456;28;20176;-83
2022/03/20 09:08:05;;;;;;;19.67;13.03;;;7.60;86.40;;;;;;5012412;28;20619;-83
2022/03/20 09:10:31;;;;;;;19.27;13.33;;;7.70;87.30;;;;;;5011619;28;20180;-82
2022/03/20 09:13:00;;;;;;;22.57;14.07;;;7.80;87.30;;;;;;5011606;28;20191;-84
2022/03/20 09:15:27;;;;;;;18.50;13.17;;;7.90;86.30;;;;;;5012086;28;20249;-84
2022/03/20 09:20:40;;;;;;;20.07;12.13;;;8.00;85.30;;;;;;4997453;28;20210;-85
2022/03/20 09:23:07;;;;;;;22.93;13.13;;;8.00;84.80;;;;;;5011978;28;20236;-84
2022/03/20 09:25:34;;;;;;;21.70;13.23;;;8.10;82.80;;;;;;5012280;28;20184;-85
2022/03/20 09:28:00;;;;;;;19.40;12.40;;;8.20;85.00;;;;;;5012437;28;20194;-84
2022/03/20 09:30:26;;;;;;;22.73;13.60;;;8.20;83.70;;;;;;4997417;28;20179;-86
2022/03/20 09:32:52;;;;;;;23.57;13.43;;;8.40;84.50;;;;;;5012263;28;20184;-85
2022/03/20 09:35:19;;;;;;;24.83;12.43;;;8.50;82.40;;;;;;4997029;28;20607;-83
2022/03/20 09:37:45;;;;;;;19.93;12.43;;;8.60;83.10;;;;;;4996954;28;20172;-84
2022/03/20 09:40:13;;;;;;;30.77;13.07;;;8.60;81.40;;;;;;5011971;28;20603;-84
2022/03/20 09:42:40;;;;;;;20.20;11.63;;;8.70;82.40;;;;;;5012231;28;20187;-88
2022/03/20 09:45:09;;;;;;;20.93;12.30;;;8.90;81.60;;;;;;5012352;28;20584;-85
2022/03/20 09:47:39;;;;;;;23.90;12.10;;;8.90;79.50;;;;;;5011591;28;20606;-84
2022/03/20 09:50:06;;;;;;;20.60;12.70;;;9.00;78.70;;;;;;5012032;28;20172;-84
2022/03/20 09:52:34;;;;;;;19.30;12.50;;;9.00;78.70;;;;;;4996615;28;20238;-86
2022/03/20 09:55:00;;;;;;;20.30;12.70;;;9.20;80.10;;;;;;5011856;28;20183;-83
2022/03/20 09:57:28;;;;;;;18.20;12.40;;;9.30;77.90;;;;;;4995983;28;20211;-84
2022/03/20 09:59:55;;;;;;;18.50;12.67;;;9.40;78.10;;;;;;5011130;28;20215;-84
2022/03/20 10:02:25;;;;;;;21.57;12.93;;;9.50;77.90;;;;;;5003408;28;20215;-85
2022/03/20 10:04:56;;;;;;;17.77;11.03;;;9.60;78.30;;;;;;4995474;28;20247;-85
2022/03/20 10:07:24;;;;;;;21.40;11.10;;;9.70;74.90;;;;;;5010152;28;20179;-86
2022/03/20 10:10:08;;;;;;;17.57;11.03;;;9.80;75.00;;;;;;5011059;28;20611;-84
2022/03/20 10:12:35;;;;;;;18.80;11.13;;;10.00;73.90;;;;;;5011282;28;20184;-87
2022/03/20 10:15:02;;;;;;;17.57;11.10;;;10.00;72.70;;;;;;5011434;28;20188;-83
2022/03/20 10:17:28;;;;;;;17.27;11.13;;;10.00;72.60;;;;;;4996171;28;20654;-84
2022/03/20 10:20:11;;;;;;;16.63;10.93;;;10.10;71.20;;;;;;5011274;28;20172;-83
2022/03/20 10:22:37;;;;;;;16.67;10.60;;;10.20;72.00;;;;;;4996005;28;20227;-83
2022/03/20 10:25:03;;;;;;;17.80;10.43;;;10.30;70.50;;;;;;4996228;28;20234;-86
2022/03/20 10:27:29;;;;;;;18.77;11.63;;;10.30;70.20;;;;;;4995263;28;20176;-85
2022/03/20 10:30:00;;;;;;;18.60;10.70;;;10.40;70.30;;;;;;5011055;28;20172;-84
2022/03/20 10:32:26;;;;;;;14.70;10.07;;;10.50;69.30;;;;;;4996151;28;20530;-84
2022/03/20 10:34:58;;;;;;;14.27;10.50;;;10.60;68.90;;;;;;5011028;28;20182;-85
2022/03/20 10:38:01;;;;;;;13.90;9.57;;;10.80;67.00;;;;;;5011177;28;20250;-85
2022/03/20 10:40:29;;;;;;;14.95;9.65;;;10.80;65.20;;;;;;5014378;28;20190;-85
2022/03/20 10:43:15;;;;;;;14.88;9.80;;;10.90;65.40;;;;;;5015157;28;20179;-84
2022/03/20 10:45:57;;;;;;;12.63;8.93;;;10.90;66.00;;;;;;5011829;28;20184;-85
2022/03/20 10:48:36;;;;;;;14.10;8.65;;;11.10;64.40;;;;;;5010504;28;20183;-83
2022/03/20 10:51:03;;;;;;;15.45;8.75;;;11.20;64.80;;;;;;5010870;28;20180;-88
2022/03/20 10:53:29;;;;;;;12.93;8.73;;;11.30;61.40;;;;;;4995821;28;20179;-83
2022/03/20 10:55:56;;;;;;;12.65;8.68;;;11.40;61.20;;;;;;5010759;28;20171;-85
2022/03/20 10:58:26;;;;;;;17.67;9.57;;;11.50;62.50;;;;;;5010309;28;20638;-85
2022/03/20 11:00:53;;;;;;;12.15;8.50;;;11.70;62.50;;;;;;5010590;28;20608;-85
2022/03/20 11:03:22;;;;;;;11.63;8.05;;;11.60;59.00;;;;;;4995106;28;20175;-85
2022/03/20 11:05:49;;;;;;;11.80;7.75;;;11.50;57.60;;;;;;4995715;28;20172;-84
2022/03/20 11:08:23;;;;;;;12.20;8.23;;;11.50;58.10;;;;;;4995724;28;20172;-85
2022/03/20 11:10:49;;;;;;;11.40;7.95;;;11.50;57.70;;;;;;4995684;28;20247;-86
2022/03/20 11:13:17;;;;;;;13.10;7.80;;;11.60;57.50;;;;;;5010373;28;20179;-87
2022/03/20 11:15:46;;;;;;;11.25;8.02;;;11.70;57.20;;;;;;4995451;28;20190;-89
2022/03/20 11:18:15;;;;;;;14.98;8.80;;;11.70;56.40;;;;;;5012254;28;20180;-87
2022/03/20 11:20:46;;;;;;;14.40;8.15;;;11.60;57.10;;;;;;5027643;28;20211;-86
2022/03/20 11:23:17;;;;;;;14.48;8.98;;;11.60;57.30;;;;;;5031926;28;20202;-85
2022/03/20 11:25:45;;;;;;;11.85;8.23;;;11.50;57.30;;;;;;5031508;28;20528;-90
2022/03/20 11:28:13;;;;;;;13.95;9.45;;;11.60;57.40;;;;;;4999332;28;20203;-87
2022/03/20 11:30:39;;;;;;;13.77;9.00;;;11.60;57.60;;;;;;5014523;28;20212;-85
2022/03/20 11:33:09;;;;;;;14.80;9.52;;;11.60;57.70;;;;;;5014279;28;20185;-86
2022/03/20 11:35:36;;;;;;;20.88;9.50;;;11.60;57.40;;;;;;4999684;28;20172;-88
2022/03/20 11:38:18;;;;;;;15.07;9.20;;;11.70;57.10;;;;;;5014746;28;20184;-86
2022/03/20 11:41:14;;;;;;;13.35;9.18;;;11.70;57.40;;;;;;5014164;28;20728;-85
2022/03/20 11:43:44;;;;;;;12.07;8.65;;;11.80;57.50;;;;;;4997909;28;20191;-86
2022/03/20 11:46:21;;;;;;;13.27;9.00;;;11.90;57.20;;;;;;5014237;28;20183;-84
2022/03/20 11:49:29;;;;;;;14.20;8.73;;;11.90;57.40;;;;;;5013857;28;20686;-84
2022/03/20 11:52:08;;;;;;;12.88;9.02;;;12.10;58.20;;;;;;4965745;28;20508;-87
2022/03/20 11:54:42;;;;;;;14.57;9.57;;;12.10;57.30;;;;;;4967029;28;20650;-83
2022/03/20 11:57:26;;;;;;;17.65;9.45;;;12.10;57.30;;;;;;4983863;28;20187;-85
2022/03/20 11:59:54;;;;;;;14.80;9.30;;;12.10;57.90;;;;;;5032891;28;20214;-87
2022/03/20 12:02:28;;;;;;;13.07;9.43;;;12.20;58.00;;;;;;5032443;28;20358;-85
2022/03/20 12:05:18;;;;;;;15.05;9.32;;;12.20;56.80;;;;;;5017043;28;20241;-84
2022/03/20 12:08:06;;;;;;;16.00;9.32;;;12.20;56.70;;;;;;5017625;28;20175;-84
2022/03/20 12:10:36;;;;;;;15.45;9.35;;;12.30;57.60;;;;;;5033492;28;20644;-88
2022/03/20 12:13:23;;;;;;;14.80;8.85;;;12.20;56.10;;;;;;5018304;28;20183;-87
2022/03/20 12:15:49;;;;;;;13.57;9.00;;;12.30;56.30;;;;;;4998601;28;20191;-83
2022/03/20 12:18:14;;;;;;;15.27;8.85;;;12.30;57.70;;;;;;5013176;28;20198;-83
2022/03/20 12:20:52;;;;;;;14.45;9.15;;;12.40;56.70;;;;;;5013627;28;20366;-86
2022/03/20 12:23:32;;;;;;;12.50;8.82;;;12.40;56.30;;;;;;5013451;28;20210;-84
2022/03/20 12:26:18;;;;;;;12.65;9.10;;;12.60;57.30;;;;;;4998377;28;20194;-87
2022/03/20 12:28:44;;;;;;;13.98;8.80;;;12.60;55.90;;;;;;5013321;28;20183;-85
2022/03/20 12:31:09;;;;;;;11.68;8.82;;;12.60;55.40;;;;;;5013618;28;20168;-89
2022/03/20 12:33:35;;;;;;;13.05;8.70;;;12.60;55.70;;;;;;5012698;28;20179;-84
2022/03/20 12:36:01;;;;;;;12.30;8.20;;;12.70;56.20;;;;;;5013279;28;20218;-83
2022/03/20 12:38:39;;;;;;;10.45;7.20;;;12.80;56.20;;;;;;5013187;28;20187;-84
2022/03/20 12:41:24;;;;;;;11.55;6.75;;;13.00;54.90;;;;;;5013243;28;20258;-87
2022/03/20 12:44:00;;;;;;;11.93;7.55;;;13.00;53.20;;;;;;5013061;28;20281;-84
2022/03/20 12:46:27;;;;;;;10.55;7.22;;;13.10;53.60;;;;;;4998017;28;20645;-83
2022/03/20 12:48:55;;;;;;;11.07;7.25;;;13.10;53.00;;;;;;4996385;28;20254;-84
2022/03/20 12:51:32;;;;;;;11.75;6.70;;;13.20;54.70;;;;;;4997817;28;20179;-83
2022/03/20 12:54:10;;;;;;;10.02;7.43;;;13.20;54.70;;;;;;4996704;28;20176;-83
2022/03/20 12:56:53;;;;;;;8.65;6.78;;;13.10;52.50;;;;;;4997680;28;20168;-85
2022/03/20 12:59:25;;;;;;;11.88;7.18;;;12.90;52.00;;;;;;5012556;28;20219;-83
2022/03/20 13:01:52;;;;;;;12.35;7.60;;;12.90;52.80;;;;;;5012394;28;20223;-83
2022/03/20 13:04:19;;;;;;;10.10;7.15;;;13.00;53.20;;;;;;5012157;28;20179;-83
2022/03/20 13:06:46;;;;;;;10.13;6.97;;;13.10;54.20;;;;;;4997366;28;20568;-82
2022/03/20 13:09:13;;;;;;;10.98;6.70;;;13.30;53.10;;;;;;5012747;28;20199;-82
2022/03/20 13:11:51;;;;;;;12.20;7.47;;;13.20;51.60;;;;;;5012857;28;20259;-81
2022/03/20 13:14:17;;;;;;;10.85;7.28;;;13.30;52.80;;;;;;4997702;28;20274;-82
2022/03/20 13:17:04;;;;;;;10.98;6.72;;;13.30;52.70;;;;;;4997526;28;20191;-82